Tocumen International Airport
MPTO : now visible

Airfield :











YOU CAN JOIN US ON...

 
LOGIN :

Register | Disclaimer

   EN    FR    IT 

 









Legend :    VFR   Marginal VFR   IFR   Intensive IFR   Very Intensive IFR
Visi :
Ceiling :
>= 8 km
>= 3000ft
5 to 8 km
1000 to 3000 ft
1500m to 5 km
500 to 1000 ft
800 to 1500m
200 to 500 ft
< 800m
< 200 ft
Symbols :   Thunderstorms  Fog  Heavy snow  Heavy precipitations  Wind > 20 kt






- Airport Elevation : 135 ft
- IATA code : PTY


MPTO - Tocumen International

CURRENT METAR :
  • 110200Z 00000KT 9999 FEW018CB 26/23 Q1008 NOSIG

EXPIRED METARs :
  • 110100Z 00000KT 9999 FEW018CB 26/24 Q1007 NOSIG
  • 110000Z 07004KT 9999 FEW018CB 27/24 Q1007 NOSIG

TAF TAF MPTO
Valid from the 11 at 00:00 until the 12 at 06:00 UTC


102300Z 1100/1206 06006KT 9999 SCT018
TEMPO 1108/1110 VRB02KT
PROB30 1117/1121 18008KT 7000 SHRA SCT016TCU SCT090



MET'MAP, your aeronautical weather chart ! - Copyright ORBIFLY December 2007 - Disclaimer

ORBIFLY MET'MAP TEAM :

Programming & Development : Alexandra Zaïnal
Concept & original design : Baudouin d'Aumeries
Assistance for programming : Marc-Olivier Méhu
Technical & hardware support : Manuel Goepfert

Contact : metmap@orbifly.com




SOURCES & CREDITS :

   NOAA       Earth
Advisory